Time;durP1;ratioP1;P1;durP2;ratioP2;P2;SDS_P1;SDS_P2;PMS_P1;PMS_P2;Temp;Humidity;BMP_temperature;BMP_pressure;BME280_temperature;BME280_humidity;BME280_pressure;Samples;Min_cycle;Max_cycle;Signal;HPM_P1;HPM_P2
2022/10/17 00:02:22;;;;;;;;;;;11.80;78.20;;;-151.14;100.00;62537.16;5069245;28;19921;-83
2022/10/17 00:04:50;;;;;;;;;;;11.80;77.90;;;-151.14;100.00;62537.16;5052965;28;19921;-82
2022/10/17 00:07:18;;;;;;;;;;;11.80;78.00;;;-151.14;100.00;62537.16;5052248;28;19921;-82
2022/10/17 00:09:47;;;;;;;;;;;11.80;77.90;;;-151.14;100.00;62537.16;5035682;28;19927;-82
2022/10/17 00:12:16;;;;;;;;;;;11.80;78.00;;;-151.14;100.00;62537.16;5035763;28;19925;-82
2022/10/17 00:14:44;;;;;;;;;;;11.80;78.10;;;-151.14;100.00;62537.16;5051637;28;20188;-82
2022/10/17 00:17:11;;;;;;;;;;;11.80;78.10;;;-151.14;100.00;62537.16;5052195;28;19920;-82
2022/10/17 00:19:39;;;;;;;;;;;11.80;78.20;;;-151.14;100.00;62537.16;5052094;28;19920;-82
2022/10/17 00:22:08;;;;;;;;;;;11.80;78.10;;;-151.14;100.00;62537.16;5068953;28;19927;-82
2022/10/17 00:24:36;;;;;;;;;;;11.80;78.10;;;-151.14;100.00;62537.16;5051493;28;19921;-82
2022/10/17 00:27:05;;;;;;;;;;;11.80;78.00;;;-151.14;100.00;62537.16;5052929;28;19979;-82
2022/10/17 00:29:33;;;;;;;;;;;11.80;78.00;;;-151.14;100.00;62537.16;5052066;28;19927;-82
2022/10/17 00:32:01;;;;;;;;;;;11.80;78.30;;;-151.14;100.00;62537.16;5051871;28;19935;-82
2022/10/17 00:34:29;;;;;;;;;;;11.80;78.40;;;-151.14;100.00;62537.16;5051369;28;19920;-83
2022/10/17 00:36:57;;;;;;;;;;;11.80;78.30;;;-151.14;100.00;62537.16;5051775;28;19927;-82
2022/10/17 00:39:26;;;;;;;;;;;11.80;78.30;;;-151.14;100.00;62537.16;5035252;28;19929;-82
2022/10/17 00:41:54;;;;;;;;;;;11.80;78.20;;;-151.14;100.00;62537.16;5051791;28;19921;-82
2022/10/17 00:44:59;;;;;;;;;;;11.80;78.20;;;-151.14;100.00;62537.16;5081053;28;19940;-83
2022/10/17 00:47:27;;;;;;;;;;;11.80;78.30;;;-151.14;100.00;62537.16;5108729;28;19920;-82
2022/10/17 00:49:55;;;;;;;;;;;11.80;78.30;;;-151.14;100.00;62537.16;5091783;28;20230;-82
2022/10/17 00:52:24;;;;;;;;;;;11.70;78.20;;;-151.14;100.00;62537.16;5108971;28;19920;-82
2022/10/17 00:54:54;;;;;;;;;;;11.70;78.30;;;-151.14;100.00;62537.16;5092240;28;19927;-82
2022/10/17 00:57:22;;;;;;;;;;;11.70;78.30;;;-151.14;100.00;62537.16;5091675;28;20116;-82
2022/10/17 00:59:52;;;;;;;;;;;11.70;78.30;;;-151.14;100.00;62537.16;5108628;28;19920;-83
2022/10/17 01:02:22;;;;;;;;;;;11.70;78.30;;;-151.14;100.00;62537.16;5091689;28;20120;-83
2022/10/17 01:04:51;;;;;;;;;;;11.70;78.30;;;-151.14;100.00;62537.16;5074256;28;19926;-82
2022/10/17 01:07:19;;;;;;;;;;;11.70;78.30;;;-151.14;100.00;62537.16;5091283;28;20119;-82
2022/10/17 01:09:47;;;;;;;;;;;11.70;78.30;;;-151.14;100.00;62537.16;5074803;28;19926;-82
2022/10/17 01:12:18;;;;;;;;;;;11.70;78.40;;;-151.14;100.00;62537.16;5074819;28;19934;-82
2022/10/17 01:14:52;;;;;;;;;;;11.70;78.40;;;-151.14;100.00;62537.16;5090880;28;19927;-82
2022/10/17 01:17:24;;;;;;;;;;;11.70;78.30;;;-151.14;100.00;62537.16;5091381;28;19924;-83
2022/10/17 01:20:04;;;;;;;;;;;11.70;78.40;;;-151.14;100.00;62537.16;5074558;28;19920;-82
2022/10/17 01:22:33;;;;;;;;;;;11.70;78.30;;;-151.14;100.00;62537.16;5091488;28;19920;-82
2022/10/17 01:25:11;;;;;;;;;;;11.70;78.30;;;-151.14;100.00;62537.16;5090837;28;20220;-82
2022/10/17 01:27:55;;;;;;;;;;;11.70;78.40;;;-151.14;100.00;62537.16;5091233;28;19930;-82
2022/10/17 01:30:42;;;;;;;;;;;11.70;78.40;;;-151.14;100.00;62537.16;5091291;28;19934;-82
2022/10/17 01:33:13;;;;;;;;;;;11.70;78.30;;;-151.14;100.00;62537.16;5091097;28;19920;-82
2022/10/17 01:35:42;;;;;;;;;;;11.70;78.40;;;-151.14;100.00;62537.16;5074236;28;20115;-82
2022/10/17 01:38:11;;;;;;;;;;;11.70;78.30;;;-151.14;100.00;62537.16;5090442;28;19924;-82
2022/10/17 01:40:42;;;;;;;;;;;11.70;78.30;;;-151.14;100.00;62537.16;5074282;28;19920;-82
2022/10/17 01:43:13;;;;;;;;;;;11.70;78.40;;;-151.14;100.00;62537.16;5091062;28;19921;-82
2022/10/17 01:45:45;;;;;;;;;;;11.70;78.40;;;-151.14;100.00;62537.16;5092028;28;19920;-82
2022/10/17 01:48:16;;;;;;;;;;;11.70;78.40;;;-151.14;100.00;62537.16;5074147;28;20118;-82
2022/10/17 01:50:46;;;;;;;;;;;11.60;78.40;;;-151.14;100.00;62537.16;5090979;28;19921;-83
2022/10/17 01:53:16;;;;;;;;;;;11.70;78.40;;;-151.14;100.00;62537.16;5107569;28;19926;-82
2022/10/17 01:55:45;;;;;;;;;;;11.60;78.20;;;-151.14;100.00;62537.16;5082582;28;20232;-82
2022/10/17 01:58:14;;;;;;;;;;;11.60;78.40;;;-151.14;100.00;62537.16;5070648;28;19920;-83
2022/10/17 02:00:43;;;;;;;;;;;11.60;78.40;;;-151.14;100.00;62537.16;5070539;28;19927;-82
2022/10/17 02:03:13;;;;;;;;;;;11.60;78.30;;;-151.14;100.00;62537.16;5087436;28;19924;-82
2022/10/17 02:05:43;;;;;;;;;;;11.60;78.20;;;-151.14;100.00;62537.16;5070532;28;19924;-82
2022/10/17 02:08:11;;;;;;;;;;;11.60;78.30;;;-151.14;100.00;62537.16;5053907;28;19924;-82
2022/10/17 02:10:44;;;;;;;;;;;11.60;78.50;;;-151.14;100.00;62537.16;5087299;28;19920;-82
2022/10/17 02:13:15;;;;;;;;;;;11.60;78.30;;;-151.14;100.00;62537.16;5070366;28;19920;-82
2022/10/17 02:15:52;;;;;;;;;;;11.60;78.40;;;-151.14;100.00;62537.16;5070309;28;19927;-82
2022/10/17 02:18:30;;;;;;;;;;;11.60;78.40;;;-151.14;100.00;62537.16;5070356;28;19927;-82
2022/10/17 02:21:01;;;;;;;;;;;11.60;78.40;;;-151.14;100.00;62537.16;5087211;28;19921;-82
2022/10/17 02:23:32;;;;;;;;;;;11.60;78.40;;;-151.14;100.00;62537.16;5069925;28;19927;-82
2022/10/17 02:26:03;;;;;;;;;;;11.60;78.50;;;-151.14;100.00;62537.16;5071384;28;19927;-82
2022/10/17 02:28:35;;;;;;;;;;;11.60;78.30;;;-151.14;100.00;62537.16;5071316;28;19944;-82
2022/10/17 02:31:06;;;;;;;;;;;11.60;78.50;;;-151.14;100.00;62537.16;5087112;28;19921;-82
2022/10/17 02:33:37;;;;;;;;;;;11.60;78.40;;;-151.14;100.00;62537.16;5069650;28;19928;-82
2022/10/17 02:36:09;;;;;;;;;;;11.60;78.30;;;-151.14;100.00;62537.16;5070091;28;19921;-82
2022/10/17 02:38:37;;;;;;;;;;;11.60;78.30;;;-151.14;100.00;62537.16;5070038;28;19920;-82
2022/10/17 02:41:06;;;;;;;;;;;11.60;78.40;;;-151.14;100.00;62537.16;5071350;28;19921;-82
2022/10/17 02:43:34;;;;;;;;;;;11.60;78.40;;;-151.14;100.00;62537.16;5052861;28;20227;-82
2022/10/17 02:46:03;;;;;;;;;;;11.60;78.30;;;-151.14;100.00;62537.16;5053277;28;19920;-82
2022/10/17 02:48:34;;;;;;;;;;;11.60;78.40;;;-151.14;100.00;62537.16;5086711;28;19921;-82
2022/10/17 02:51:07;;;;;;;;;;;11.60;78.60;;;-151.14;100.00;62537.16;5073442;28;19942;-82
2022/10/17 02:53:39;;;;;;;;;;;11.60;78.50;;;-151.14;100.00;62537.16;5073170;28;19928;-83
2022/10/17 02:56:10;;;;;;;;;;;11.60;78.40;;;-151.14;100.00;62537.16;5073431;28;19920;-82
2022/10/17 02:58:38;;;;;;;;;;;11.60;78.30;;;-151.14;100.00;62537.16;5073440;28;19927;-82
2022/10/17 03:01:06;;;;;;;;;;;11.50;78.60;;;-151.14;100.00;62537.16;5073634;28;20338;-81
2022/10/17 03:03:34;;;;;;;;;;;11.50;78.50;;;-151.14;100.00;62537.16;5055668;28;19928;-82
2022/10/17 03:06:03;;;;;;;;;;;11.50;78.50;;;-151.14;100.00;62537.16;5089923;28;19927;-81
2022/10/17 03:08:32;;;;;;;;;;;11.50;78.60;;;-151.14;100.00;62537.16;5073298;28;19920;-82
2022/10/17 03:11:01;;;;;;;;;;;11.50;78.60;;;-151.14;100.00;62537.16;5056751;28;19921;-81
2022/10/17 03:13:30;;;;;;;;;;;11.50;78.60;;;-151.14;100.00;62537.16;5072633;28;19920;-81
2022/10/17 03:15:59;;;;;;;;;;;11.50;78.30;;;-151.14;100.00;62537.16;5090038;28;19921;-82
2022/10/17 03:18:27;;;;;;;;;;;11.50;78.30;;;-151.14;100.00;62537.16;5056438;28;19921;-81
2022/10/17 03:20:59;;;;;;;;;;;11.50;78.50;;;-151.14;100.00;62537.16;5056627;28;19927;-81
2022/10/17 03:23:27;;;;;;;;;;;11.50;78.50;;;-151.14;100.00;62537.16;5072649;28;19929;-81
2022/10/17 03:25:57;;;;;;;;;;;11.50;78.60;;;-151.14;100.00;62537.16;5056406;28;19920;-82
2022/10/17 03:28:25;;;;;;;;;;;11.50;78.60;;;-151.14;100.00;62537.16;5074129;28;19921;-81
2022/10/17 03:30:53;;;;;;;;;;;11.50;78.50;;;-151.14;100.00;62537.16;5089748;28;19927;-82
2022/10/17 03:33:21;;;;;;;;;;;11.50;79.40;;;-151.14;100.00;62537.16;5089297;28;19920;-82
2022/10/17 03:35:49;;;;;;;;;;;11.50;78.60;;;-151.14;100.00;62537.16;5072996;28;19920;-82
2022/10/17 03:38:18;;;;;;;;;;;11.50;78.40;;;-151.14;100.00;62537.16;5056223;28;19920;-81
2022/10/17 03:40:54;;;;;;;;;;;11.50;78.60;;;-151.14;100.00;62537.16;5072797;28;19935;-81
2022/10/17 03:43:24;;;;;;;;;;;11.50;78.70;;;-151.14;100.00;62537.16;5072268;28;19927;-82
2022/10/17 03:45:52;;;;;;;;;;;11.50;78.60;;;-151.14;100.00;62537.16;5072688;28;19920;-82
2022/10/17 03:48:20;;;;;;;;;;;11.50;78.80;;;-151.14;100.00;62537.16;5072585;28;19926;-81
2022/10/17 03:50:48;;;;;;;;;;;11.50;78.70;;;-151.14;100.00;62537.16;5072730;28;19920;-81
2022/10/17 03:53:16;;;;;;;;;;;11.50;78.70;;;-151.14;100.00;62537.16;5072208;28;19943;-82
2022/10/17 03:55:45;;;;;;;;;;;11.40;78.60;;;-151.14;100.00;62537.16;5072487;28;19927;-81
2022/10/17 03:58:12;;;;;;;;;;;11.40;78.60;;;-151.14;100.00;62537.16;5072616;28;19942;-81
2022/10/17 04:00:42;;;;;;;;;;;11.40;78.60;;;-151.14;100.00;62537.16;5071897;28;19921;-82
2022/10/17 04:03:10;;;;;;;;;;;11.40;78.60;;;-151.14;100.00;62537.16;5072578;28;19920;-82
2022/10/17 04:05:38;;;;;;;;;;;11.40;78.40;;;-151.14;100.00;62537.16;5072103;28;19920;-82
2022/10/17 04:08:07;;;;;;;;;;;11.40;78.50;;;-151.14;100.00;62537.16;5072277;28;19931;-82
2022/10/17 04:10:53;;;;;;;;;;;11.40;78.70;;;-151.14;100.00;62537.16;5073470;28;19920;-82
2022/10/17 04:13:21;;;;;;;;;;;11.40;78.40;;;-151.14;100.00;62537.16;5054978;28;19931;-82
2022/10/17 04:15:55;;;;;;;;;;;11.40;78.60;;;-151.14;100.00;62537.16;5072044;28;19978;-81
2022/10/17 04:18:23;;;;;;;;;;;11.40;78.60;;;-151.14;100.00;62537.16;5089031;28;19921;-81
2022/10/17 04:20:51;;;;;;;;;;;11.40;78.50;;;-151.14;100.00;62537.16;5072130;28;19935;-82
2022/10/17 04:23:20;;;;;;;;;;;11.40;78.60;;;-151.14;100.00;62537.16;5071720;28;20097;-82
2022/10/17 04:25:55;;;;;;;;;;;11.40;78.70;;;-151.14;100.00;62537.16;5072141;28;19921;-81
2022/10/17 04:28:23;;;;;;;;;;;11.40;78.60;;;-151.14;100.00;62537.16;5055358;28;19921;-82
2022/10/17 04:30:57;;;;;;;;;;;11.40;78.60;;;-151.14;100.00;62537.16;5055284;28;20119;-82
2022/10/17 04:33:26;;;;;;;;;;;11.40;78.70;;;-151.14;100.00;62537.16;5054768;28;19920;-82
2022/10/17 04:35:58;;;;;;;;;;;11.40;78.80;;;-151.14;100.00;62537.16;5055158;28;19921;-81
2022/10/17 04:38:26;;;;;;;;;;;11.40;78.80;;;-151.14;100.00;62537.16;5071839;28;19921;-82
2022/10/17 04:40:54;;;;;;;;;;;11.40;78.70;;;-151.14;100.00;62537.16;5071975;28;19920;-82
2022/10/17 04:43:22;;;;;;;;;;;11.40;78.80;;;-151.14;100.00;62537.16;5067833;28;19920;-82
2022/10/17 04:45:51;;;;;;;;;;;11.40;78.80;;;-151.14;100.00;62537.16;5051596;28;19921;-82
2022/10/17 04:48:20;;;;;;;;;;;11.40;78.80;;;-151.14;100.00;62537.16;5035122;28;20111;-81
2022/10/17 04:50:55;;;;;;;;;;;11.40;78.60;;;-151.14;100.00;62537.16;5051614;28;19921;-81
2022/10/17 04:53:46;;;;;;;;;;;11.40;78.90;;;-151.14;100.00;62537.16;5068122;28;19920;-82
2022/10/17 04:56:15;;;;;;;;;;;11.40;78.90;;;-151.14;100.00;62537.16;5091553;28;19926;-81
2022/10/17 04:58:43;;;;;;;;;;;11.40;78.80;;;-151.14;100.00;62537.16;5108757;28;20124;-82
2022/10/17 05:01:12;;;;;;;;;;;11.40;78.80;;;-151.14;100.00;62537.16;5091724;28;19920;-82
2022/10/17 05:03:44;;;;;;;;;;;11.40;78.80;;;-151.14;100.00;62537.16;5091230;28;19935;-82
2022/10/17 05:06:13;;;;;;;;;;;11.40;78.80;;;-151.14;100.00;62537.16;5091604;28;19921;-81
2022/10/17 05:08:43;;;;;;;;;;;11.40;78.90;;;-151.14;100.00;62537.16;5075013;28;19921;-82
2022/10/17 05:11:17;;;;;;;;;;;11.40;78.70;;;-151.14;100.00;62537.16;5091240;28;19927;-81
2022/10/17 05:13:45;;;;;;;;;;;11.40;78.70;;;-151.14;100.00;62537.16;5090426;28;19920;-81
2022/10/17 05:16:13;;;;;;;;;;;11.40;78.80;;;-151.14;100.00;62537.16;5091397;28;19920;-81
2022/10/17 05:18:44;;;;;;;;;;;11.40;78.80;;;-151.14;100.00;62537.16;5108428;28;19920;-81
2022/10/17 05:21:12;;;;;;;;;;;11.40;78.60;;;-151.14;100.00;62537.16;5108352;28;19920;-82
2022/10/17 05:23:40;;;;;;;;;;;11.40;78.80;;;-151.14;100.00;62537.16;5074003;28;19920;-81
2022/10/17 05:26:08;;;;;;;;;;;11.30;78.60;;;-151.14;100.00;62537.16;5091203;28;20334;-81
2022/10/17 05:28:36;;;;;;;;;;;11.40;78.60;;;-151.14;100.00;62537.16;5091285;28;19990;-82
2022/10/17 05:31:05;;;;;;;;;;;11.40;79.60;;;-151.14;100.00;62537.16;5091012;28;20238;-81
2022/10/17 05:33:33;;;;;;;;;;;11.40;78.40;;;-151.14;100.00;62537.16;5073873;28;19928;-82
2022/10/17 05:36:03;;;;;;;;;;;11.40;78.70;;;-151.14;100.00;62537.16;5091060;28;19920;-81
2022/10/17 05:38:31;;;;;;;;;;;11.40;78.70;;;-151.14;100.00;62537.16;5108162;28;20420;-81
2022/10/17 05:40:59;;;;;;;;;;;11.40;78.60;;;-151.14;100.00;62537.16;5091125;28;19920;-82
2022/10/17 05:43:28;;;;;;;;;;;11.40;78.40;;;-151.14;100.00;62537.16;5107238;28;20216;-82
2022/10/17 05:45:56;;;;;;;;;;;11.40;78.40;;;-151.14;100.00;62537.16;5073979;28;19927;-82
2022/10/17 05:48:24;;;;;;;;;;;11.40;78.40;;;-151.14;100.00;62537.16;5090789;28;19920;-82
2022/10/17 05:50:58;;;;;;;;;;;11.40;78.20;;;-151.14;100.00;62537.16;5073897;28;19925;-81
2022/10/17 05:53:30;;;;;;;;;;;11.50;78.50;;;-151.14;100.00;62537.16;5090269;28;19927;-81
2022/10/17 05:56:01;;;;;;;;;;;11.50;78.20;;;-151.14;100.00;62537.16;5071493;28;19921;-82
2022/10/17 05:58:31;;;;;;;;;;;11.50;77.90;;;-151.14;100.00;62537.16;5070459;28;19927;-81
2022/10/17 06:00:59;;;;;;;;;;;11.60;78.00;;;-151.14;100.00;62537.16;5071600;28;19934;-82
2022/10/17 06:03:28;;;;;;;;;;;11.60;77.50;;;-151.14;100.00;62537.16;5073454;28;19928;-82
2022/10/17 06:05:56;;;;;;;;;;;11.70;77.40;;;-151.14;100.00;62537.16;5090519;28;19927;-81
2022/10/17 06:08:24;;;;;;;;;;;11.70;77.30;;;-151.14;100.00;62537.16;5090644;28;19927;-82
2022/10/17 06:10:53;;;;;;;;;;;11.70;77.20;;;-151.14;100.00;62537.16;5090407;28;20234;-82
2022/10/17 06:13:21;;;;;;;;;;;11.70;77.00;;;-151.14;100.00;62537.16;5073399;28;19920;-82
2022/10/17 06:15:52;;;;;;;;;;;11.80;76.70;;;-151.14;100.00;62537.16;5073682;28;19920;-82
2022/10/17 06:18:20;;;;;;;;;;;11.90;76.70;;;-151.14;100.00;62537.16;5091721;28;19924;-82
2022/10/17 06:20:48;;;;;;;;;;;11.90;76.50;;;-151.14;100.00;62537.16;5073626;28;19920;-81
2022/10/17 06:23:19;;;;;;;;;;;11.90;76.00;;;-151.14;100.00;62537.16;5106674;28;19920;-82
2022/10/17 06:26:10;;;;;;;;;;;12.00;75.80;;;-151.14;100.00;62537.16;5074338;28;19927;-82
2022/10/17 06:28:39;;;;;;;;;;;12.00;75.40;;;-151.14;100.00;62537.16;5070273;28;20089;-82
2022/10/17 06:31:08;;;;;;;;;;;12.00;75.40;;;-151.14;100.00;62537.16;5053518;28;19928;-82
2022/10/17 06:33:37;;;;;;;;;;;12.10;75.40;;;-151.14;100.00;62537.16;5069834;28;20208;-82
2022/10/17 06:36:07;;;;;;;;;;;12.10;75.20;;;-151.14;100.00;62537.16;5070176;28;19920;-82
2022/10/17 06:38:36;;;;;;;;;;;12.10;75.10;;;-151.14;100.00;62537.16;5053549;28;20124;-81
2022/10/17 06:41:12;;;;;;;;;;;12.10;75.10;;;-151.14;100.00;62537.16;5070086;28;20303;-82
2022/10/17 06:43:42;;;;;;;;;;;12.20;75.10;;;-151.14;100.00;62537.16;5069666;28;19926;-82
2022/10/17 06:46:28;;;;;;;;;;;12.20;75.30;;;-151.14;100.00;62537.16;5069843;28;19921;-82
2022/10/17 06:49:06;;;;;;;;;;;12.20;75.60;;;-151.14;100.00;62537.16;5053357;28;19920;-82
2022/10/17 06:52:01;;;;;;;;;;;12.30;76.00;;;-151.14;100.00;62537.16;5069903;28;19920;-82
2022/10/17 06:54:50;;;;;;;;;;;12.30;76.20;;;-151.14;100.00;62537.16;5070380;28;20214;-82
2022/10/17 06:57:46;;;;;;;;;;;12.30;76.50;;;-151.14;100.00;62537.16;5068842;28;20119;-82
2022/10/17 07:00:40;;;;;;;;;;;12.30;76.70;;;-151.14;100.00;62537.16;5069822;28;19920;-82
2022/10/17 07:03:09;;;;;;;;;;;12.40;76.70;;;-151.14;100.00;62537.16;5069972;28;19921;-82
2022/10/17 07:05:37;;;;;;;;;;;12.40;76.60;;;-151.14;100.00;62537.16;5052608;28;19921;-82
2022/10/17 07:08:05;;;;;;;;;;;12.40;76.60;;;-151.14;100.00;62537.16;5069884;28;20112;-82
2022/10/17 07:10:37;;;;;;;;;;;12.50;76.60;;;-151.14;100.00;62537.16;5086347;28;19921;-82
2022/10/17 07:13:07;;;;;;;;;;;12.50;76.60;;;-151.14;100.00;62537.16;5069635;28;19921;-82
2022/10/17 07:15:37;;;;;;;;;;;12.60;76.40;;;-151.14;100.00;62537.16;5069415;28;19920;-82
2022/10/17 07:18:05;;;;;;;;;;;12.60;76.40;;;-151.14;100.00;62537.16;5070756;28;19927;-82
2022/10/17 07:20:33;;;;;;;;;;;12.60;76.30;;;-151.14;100.00;62537.16;5053067;28;19920;-82
2022/10/17 07:23:02;;;;;;;;;;;12.60;76.30;;;-151.14;100.00;62537.16;5052930;28;19921;-83
2022/10/17 07:25:31;;;;;;;;;;;12.60;76.20;;;-151.14;100.00;62537.16;5068991;28;19921;-82
2022/10/17 07:28:02;;;;;;;;;;;12.60;76.20;;;-151.14;100.00;62537.16;5069515;28;19920;-82
2022/10/17 07:30:32;;;;;;;;;;;12.60;76.10;;;-151.14;100.00;62537.16;5069351;28;19920;-82
2022/10/17 07:33:13;;;;;;;;;;;12.70;76.20;;;-151.14;100.00;62537.16;5086276;28;19920;-82
2022/10/17 07:35:41;;;;;;;;;;;12.70;76.10;;;-151.14;100.00;62537.16;5070744;28;19927;-82
2022/10/17 07:38:09;;;;;;;;;;;12.70;76.00;;;-151.14;100.00;62537.16;5056175;28;19921;-82
2022/10/17 07:40:38;;;;;;;;;;;12.70;76.00;;;-151.14;100.00;62537.16;5072795;28;19920;-82
2022/10/17 07:43:06;;;;;;;;;;;12.80;76.00;;;-151.14;100.00;62537.16;5073997;28;19927;-82
2022/10/17 07:45:35;;;;;;;;;;;12.80;75.90;;;-151.14;100.00;62537.16;5055553;28;19927;-82
2022/10/17 07:48:04;;;;;;;;;;;12.80;75.80;;;-151.14;100.00;62537.16;5092922;28;19926;-82
2022/10/17 07:50:32;;;;;;;;;;;12.80;75.80;;;-151.14;100.00;62537.16;5109748;28;19920;-82
2022/10/17 07:53:00;;;;;;;;;;;12.80;75.70;;;-151.14;100.00;62537.16;5109825;28;19920;-82
2022/10/17 07:55:28;;;;;;;;;;;12.80;75.70;;;-151.14;100.00;62537.16;5092066;28;19920;-82
2022/10/17 07:57:59;;;;;;;;;;;12.80;75.60;;;-151.14;100.00;62537.16;5075851;28;20208;-82
2022/10/17 08:00:27;;;;;;;;;;;12.90;75.60;;;-151.14;100.00;62537.16;5093659;28;20119;-83
2022/10/17 08:02:56;;;;;;;;;;;12.90;75.60;;;-151.14;100.00;62537.16;5092614;28;19920;-82
2022/10/17 08:05:24;;;;;;;;;;;12.90;75.60;;;-151.14;100.00;62537.16;5092106;28;19920;-83
2022/10/17 08:07:52;;;;;;;;;;;12.90;75.60;;;-151.14;100.00;62537.16;5076077;28;19920;-83
2022/10/17 08:10:20;;;;;;;;;;;12.90;75.60;;;-151.14;100.00;62537.16;5072243;28;20246;-83
2022/10/17 08:12:48;;;;;;;;;;;12.90;75.60;;;-151.14;100.00;62537.16;5072240;28;19920;-83
2022/10/17 08:15:16;;;;;;;;;;;12.90;75.50;;;-151.14;100.00;62537.16;5054954;28;19920;-82
2022/10/17 08:17:44;;;;;;;;;;;12.90;75.50;;;-151.14;100.00;62537.16;5055522;28;19920;-83
2022/10/17 08:20:14;;;;;;;;;;;12.90;75.60;;;-151.14;100.00;62537.16;5072159;28;20237;-83
2022/10/17 08:22:42;;;;;;;;;;;12.90;75.60;;;-151.14;100.00;62537.16;5072259;28;19927;-83
2022/10/17 08:25:10;;;;;;;;;;;12.90;75.60;;;-151.14;100.00;62537.16;5071604;28;19942;-83
2022/10/17 08:27:38;;;;;;;;;;;12.90;75.60;;;-151.14;100.00;62537.16;5055322;28;19927;-83
2022/10/17 08:30:07;;;;;;;;;;;12.90;75.60;;;-151.14;100.00;62537.16;5072052;28;19920;-83
2022/10/17 08:32:35;;;;;;;;;;;12.90;75.60;;;-151.14;100.00;62537.16;5071999;28;19927;-83
2022/10/17 08:35:03;;;;;;;;;;;12.80;75.60;;;-151.14;100.00;62537.16;5072589;28;19921;-83
2022/10/17 08:37:33;;;;;;;;;;;12.90;75.80;;;-151.14;100.00;62537.16;5071818;28;19927;-83
2022/10/17 08:40:01;;;;;;;;;;;12.90;75.80;;;-151.14;100.00;62537.16;5055124;28;19927;-83
2022/10/17 08:42:51;;;;;;;;;;;12.90;75.80;;;-151.14;100.00;62537.16;5073097;28;20204;-83
2022/10/17 08:45:21;;;;;;;;;;;12.90;75.90;;;-151.14;100.00;62537.16;5071195;28;19920;-83
2022/10/17 08:47:52;;;;;;;;;;;12.90;75.90;;;-151.14;100.00;62537.16;5071755;28;19926;-83
2022/10/17 08:50:24;;;;;;;;;;;12.90;75.80;;;-151.14;100.00;62537.16;5071688;28;19927;-83
2022/10/17 08:52:54;;;;;;;;;;;12.90;75.80;;;-151.14;100.00;62537.16;5054939;28;19927;-83
2022/10/17 08:55:28;;;;;;;;;;;12.90;75.80;;;-151.14;100.00;62537.16;5071142;28;20120;-83
2022/10/17 08:57:56;;;;;;;;;;;12.90;76.00;;;-151.14;100.00;62537.16;5071852;28;19921;-84
2022/10/17 09:00:24;;;;;;;;;;;12.90;76.80;;;-151.14;100.00;62537.16;5071770;28;19920;-83
2022/10/17 09:03:00;;;;;;;;;;;12.90;76.00;;;-151.14;100.00;62537.16;5054767;28;19921;-83
2022/10/17 09:05:34;;;;;;;;;;;12.90;76.00;;;-151.14;100.00;62537.16;5070968;28;20230;-84
2022/10/17 09:08:13;;;;;;;;;;;12.90;76.00;;;-151.14;100.00;62537.16;5088283;28;19927;-83
2022/10/17 09:10:47;;;;;;;;;;;12.90;76.00;;;-151.14;100.00;62537.16;5071409;28;19927;-84
2022/10/17 09:13:22;;;;;;;;;;;12.90;76.10;;;-151.14;100.00;62537.16;5070895;28;19920;-84
2022/10/17 09:15:58;;;;;;;;;;;12.90;76.10;;;-151.14;100.00;62537.16;5071232;28;19921;-84
2022/10/17 09:18:28;;;;;;;;;;;12.80;76.00;;;-151.14;100.00;62537.16;5072468;28;19921;-84
2022/10/17 09:20:57;;;;;;;;;;;12.80;76.00;;;-151.14;100.00;62537.16;5071221;28;19927;-84
2022/10/17 09:23:29;;;;;;;;;;;12.80;76.10;;;-151.14;100.00;62537.16;5070738;28;19927;-84
2022/10/17 09:25:59;;;;;;;;;;;12.80;76.10;;;-151.14;100.00;62537.16;5071093;28;19927;-83
2022/10/17 09:28:29;;;;;;;;;;;12.80;76.10;;;-151.14;100.00;62537.16;5071200;28;20123;-84
2022/10/17 09:30:59;;;;;;;;;;;12.80;76.10;;;-151.14;100.00;62537.16;5071192;28;20115;-84
2022/10/17 09:33:29;;;;;;;;;;;12.80;76.00;;;-151.14;100.00;62537.16;5087369;28;19954;-84
2022/10/17 09:35:57;;;;;;;;;;;12.80;76.10;;;-151.14;100.00;62537.16;5087767;28;19921;-84
2022/10/17 09:38:33;;;;;;;;;;;12.80;76.10;;;-151.14;100.00;62537.16;5071034;28;19923;-84
2022/10/17 09:41:01;;;;;;;;;;;12.80;76.20;;;-151.14;100.00;62537.16;5054318;28;20209;-84
2022/10/17 09:43:29;;;;;;;;;;;12.80;76.10;;;-151.14;100.00;62537.16;5071508;28;19927;-84
2022/10/17 09:46:02;;;;;;;;;;;12.80;76.20;;;-151.14;100.00;62537.16;5053807;28;20127;-84
2022/10/17 09:48:33;;;;;;;;;;;12.80;76.10;;;-151.14;100.00;62537.16;5078486;28;19920;-84
2022/10/17 09:51:01;;;;;;;;;;;12.70;76.10;;;-151.14;100.00;62537.16;5091006;28;19920;-84
2022/10/17 09:53:33;;;;;;;;;;;12.80;76.10;;;-151.14;100.00;62537.16;5090255;28;19948;-84
2022/10/17 09:56:02;;;;;;;;;;;12.80;76.20;;;-151.14;100.00;62537.16;5091834;28;19920;-83
2022/10/17 09:58:40;;;;;;;;;;;12.80;76.10;;;-151.14;100.00;62537.16;5107311;28;20207;-84
2022/10/17 10:01:22;;;;;;;;;;;12.80;76.10;;;-151.14;100.00;62537.16;5074058;28;19920;-85
2022/10/17 10:04:08;;;;;;;;;;;12.80;76.20;;;-151.14;100.00;62537.16;5090321;28;19920;-84
2022/10/17 10:06:36;;;;;;;;;;;12.70;76.30;;;-151.14;100.00;62537.16;5107623;28;19920;-84
2022/10/17 10:09:06;;;;;;;;;;;12.70;76.30;;;-151.14;100.00;62537.16;5090681;28;19920;-84
2022/10/17 10:11:48;;;;;;;;;;;12.70;76.40;;;-151.14;100.00;62537.16;5073861;28;19986;-83
2022/10/17 10:14:21;;;;;;;;;;;12.70;76.50;;;-151.14;100.00;62537.16;5091223;28;19926;-84
2022/10/17 10:16:49;;;;;;;;;;;12.70;76.40;;;-151.14;100.00;62537.16;5090686;28;20203;-84
2022/10/17 10:19:26;;;;;;;;;;;12.70;76.40;;;-151.14;100.00;62537.16;5090506;28;19927;-84
2022/10/17 10:21:55;;;;;;;;;;;12.70;76.50;;;-151.14;100.00;62537.16;5090390;28;20028;-84
2022/10/17 10:24:26;;;;;;;;;;;12.70;76.50;;;-151.14;100.00;62537.16;5089983;28;19926;-84
2022/10/17 10:26:55;;;;;;;;;;;12.70;76.50;;;-151.14;100.00;62537.16;5090365;28;19927;-85
2022/10/17 10:29:27;;;;;;;;;;;12.70;76.60;;;-151.14;100.00;62537.16;5107434;28;19943;-84
2022/10/17 10:31:55;;;;;;;;;;;12.60;76.40;;;-151.14;100.00;62537.16;5073689;28;19920;-84
2022/10/17 10:34:25;;;;;;;;;;;12.60;76.60;;;-151.14;100.00;62537.16;5072967;28;19920;-84
2022/10/17 10:36:57;;;;;;;;;;;12.60;76.60;;;-151.14;100.00;62537.16;5073475;28;20100;-83
2022/10/17 10:39:45;;;;;;;;;;;12.60;76.50;;;-151.14;100.00;62537.16;5090275;28;19920;-84
2022/10/17 10:42:23;;;;;;;;;;;12.60;76.50;;;-151.14;100.00;62537.16;5091504;28;19920;-84
2022/10/17 10:44:51;;;;;;;;;;;12.60;76.60;;;-151.14;100.00;62537.16;5090803;28;19920;-84
2022/10/17 10:47:21;;;;;;;;;;;12.60;76.60;;;-151.14;100.00;62537.16;5091241;28;19920;-84
2022/10/17 10:49:51;;;;;;;;;;;12.60;76.60;;;-151.14;100.00;62537.16;5107156;28;19920;-84
2022/10/17 10:52:25;;;;;;;;;;;12.60;76.60;;;-151.14;100.00;62537.16;5090012;28;19920;-84
2022/10/17 10:55:00;;;;;;;;;;;12.60;76.60;;;-151.14;100.00;62537.16;5090634;28;19920;-84
2022/10/17 10:57:29;;;;;;;;;;;12.60;76.70;;;-151.14;100.00;62537.16;5090012;28;20204;-84
2022/10/17 11:00:00;;;;;;;;;;;12.50;76.80;;;-151.14;100.00;62537.16;5107000;28;19920;-84
2022/10/17 11:02:31;;;;;;;;;;;12.50;76.80;;;-151.14;100.00;62537.16;5073197;28;19953;-84
2022/10/17 11:05:00;;;;;;;;;;;12.50;76.80;;;-151.14;100.00;62537.16;5089294;28;19921;-84
2022/10/17 11:07:30;;;;;;;;;;;12.50;76.90;;;-151.14;100.00;62537.16;5090949;28;19934;-84
2022/10/17 11:10:03;;;;;;;;;;;12.50;76.90;;;-151.14;100.00;62537.16;5090185;28;19934;-84
2022/10/17 11:12:33;;;;;;;;;;;12.50;77.00;;;-151.14;100.00;62537.16;5093603;28;19954;-84